sensor_id;sensor_type;location;lat;lon;timestamp;temperature;humidity
33207;DHT22;19565;46.602;11.534;2022-09-17T00:01:22;18.30;60.40
33207;DHT22;19565;46.602;11.534;2022-09-17T00:03:51;18.20;60.00
33207;DHT22;19565;46.602;11.534;2022-09-17T00:06:21;18.20;60.30
33207;DHT22;19565;46.602;11.534;2022-09-17T00:08:51;18.30;60.00
33207;DHT22;19565;46.602;11.534;2022-09-17T00:11:23;18.20;59.60
33207;DHT22;19565;46.602;11.534;2022-09-17T00:13:52;18.10;59.80
33207;DHT22;19565;46.602;11.534;2022-09-17T00:16:26;18.10;59.40
33207;DHT22;19565;46.602;11.534;2022-09-17T00:18:55;17.90;58.90
33207;DHT22;19565;46.602;11.534;2022-09-17T00:21:24;18.00;59.10
33207;DHT22;19565;46.602;11.534;2022-09-17T00:23:53;18.00;58.90
33207;DHT22;19565;46.602;11.534;2022-09-17T00:26:22;18.00;59.00
33207;DHT22;19565;46.602;11.534;2022-09-17T00:28:51;18.00;59.10
33207;DHT22;19565;46.602;11.534;2022-09-17T00:31:20;18.00;58.90
33207;DHT22;19565;46.602;11.534;2022-09-17T00:33:51;18.00;58.70
33207;DHT22;19565;46.602;11.534;2022-09-17T00:36:20;18.00;58.50
33207;DHT22;19565;46.602;11.534;2022-09-17T00:38:49;18.00;58.60
33207;DHT22;19565;46.602;11.534;2022-09-17T00:41:17;17.90;58.10
33207;DHT22;19565;46.602;11.534;2022-09-17T00:43:49;17.90;58.20
33207;DHT22;19565;46.602;11.534;2022-09-17T00:46:25;17.90;57.90
33207;DHT22;19565;46.602;11.534;2022-09-17T00:48:57;17.90;57.90
33207;DHT22;19565;46.602;11.534;2022-09-17T00:51:30;17.80;58.00
33207;DHT22;19565;46.602;11.534;2022-09-17T00:54:00;17.80;58.10
33207;DHT22;19565;46.602;11.534;2022-09-17T00:56:33;17.80;57.90
33207;DHT22;19565;46.602;11.534;2022-09-17T00:59:02;17.60;58.00
33207;DHT22;19565;46.602;11.534;2022-09-17T01:01:30;17.70;57.60
33207;DHT22;19565;46.602;11.534;2022-09-17T01:04:00;17.60;57.90
33207;DHT22;19565;46.602;11.534;2022-09-17T01:06:32;17.60;57.90
33207;DHT22;19565;46.602;11.534;2022-09-17T01:09:18;17.70;57.40
33207;DHT22;19565;46.602;11.534;2022-09-17T01:14:48;18.00;58.00
33207;DHT22;19565;46.602;11.534;2022-09-17T01:17:25;18.20;58.20
33207;DHT22;19565;46.602;11.534;2022-09-17T01:20:21;18.20;59.10
33207;DHT22;19565;46.602;11.534;2022-09-17T01:23:04;18.40;59.30
33207;DHT22;19565;46.602;11.534;2022-09-17T01:25:43;18.40;59.10
33207;DHT22;19565;46.602;11.534;2022-09-17T01:28:37;18.40;56.50
33207;DHT22;19565;46.602;11.534;2022-09-17T01:31:23;18.10;55.50
33207;DHT22;19565;46.602;11.534;2022-09-17T01:33:59;18.00;55.90
33207;DHT22;19565;46.602;11.534;2022-09-17T01:36:37;18.10;56.20
33207;DHT22;19565;46.602;11.534;2022-09-17T01:39:12;18.10;57.00
33207;DHT22;19565;46.602;11.534;2022-09-17T01:41:51;18.20;57.60
33207;DHT22;19565;46.602;11.534;2022-09-17T01:44:25;18.30;56.90
33207;DHT22;19565;46.602;11.534;2022-09-17T01:46:59;18.30;57.80
33207;DHT22;19565;46.602;11.534;2022-09-17T01:49:29;18.40;58.60
33207;DHT22;19565;46.602;11.534;2022-09-17T01:52:00;18.40;57.90
33207;DHT22;19565;46.602;11.534;2022-09-17T01:54:32;18.20;56.30
33207;DHT22;19565;46.602;11.534;2022-09-17T01:57:08;17.90;55.50
33207;DHT22;19565;46.602;11.534;2022-09-17T01:59:41;17.90;56.30
33207;DHT22;19565;46.602;11.534;2022-09-17T02:02:14;17.80;56.30
33207;DHT22;19565;46.602;11.534;2022-09-17T02:04:47;17.70;56.30
33207;DHT22;19565;46.602;11.534;2022-09-17T02:07:20;17.70;57.00
33207;DHT22;19565;46.602;11.534;2022-09-17T02:09:54;17.80;56.50
33207;DHT22;19565;46.602;11.534;2022-09-17T02:12:29;17.90;56.80
33207;DHT22;19565;46.602;11.534;2022-09-17T02:15:00;17.90;57.30
33207;DHT22;19565;46.602;11.534;2022-09-17T02:17:35;17.90;57.80
33207;DHT22;19565;46.602;11.534;2022-09-17T02:20:05;18.00;57.80
33207;DHT22;19565;46.602;11.534;2022-09-17T02:22:38;18.00;57.90
33207;DHT22;19565;46.602;11.534;2022-09-17T02:25:15;18.20;58.50
33207;DHT22;19565;46.602;11.534;2022-09-17T02:27:51;18.30;58.70
33207;DHT22;19565;46.602;11.534;2022-09-17T02:30:24;18.40;59.10
33207;DHT22;19565;46.602;11.534;2022-09-17T02:32:54;18.40;61.90
33207;DHT22;19565;46.602;11.534;2022-09-17T02:35:23;18.40;63.80
33207;DHT22;19565;46.602;11.534;2022-09-17T02:37:51;18.40;64.60
33207;DHT22;19565;46.602;11.534;2022-09-17T02:40:22;18.40;63.70
33207;DHT22;19565;46.602;11.534;2022-09-17T02:43:07;18.30;63.30
33207;DHT22;19565;46.602;11.534;2022-09-17T02:45:46;18.30;63.90
33207;DHT22;19565;46.602;11.534;2022-09-17T02:48:30;18.20;65.00
33207;DHT22;19565;46.602;11.534;2022-09-17T02:51:22;18.10;64.80
33207;DHT22;19565;46.602;11.534;2022-09-17T02:53:57;18.10;65.50
33207;DHT22;19565;46.602;11.534;2022-09-17T02:56:34;18.20;70.50
33207;DHT22;19565;46.602;11.534;2022-09-17T02:59:09;17.90;70.10
33207;DHT22;19565;46.602;11.534;2022-09-17T03:01:41;17.90;74.20
33207;DHT22;19565;46.602;11.534;2022-09-17T03:04:13;17.60;74.40
33207;DHT22;19565;46.602;11.534;2022-09-17T03:06:44;17.60;72.20
33207;DHT22;19565;46.602;11.534;2022-09-17T03:09:13;17.40;64.10
33207;DHT22;19565;46.602;11.534;2022-09-17T03:11:41;17.30;65.80
33207;DHT22;19565;46.602;11.534;2022-09-17T03:14:09;17.20;67.00
33207;DHT22;19565;46.602;11.534;2022-09-17T03:16:37;17.10;68.00
33207;DHT22;19565;46.602;11.534;2022-09-17T03:19:05;16.90;67.90
33207;DHT22;19565;46.602;11.534;2022-09-17T03:21:35;16.80;69.40
33207;DHT22;19565;46.602;11.534;2022-09-17T03:24:03;16.80;71.00
33207;DHT22;19565;46.602;11.534;2022-09-17T03:26:31;16.80;69.50
33207;DHT22;19565;46.602;11.534;2022-09-17T03:28:59;16.80;70.90
33207;DHT22;19565;46.602;11.534;2022-09-17T03:31:27;16.80;69.70
33207;DHT22;19565;46.602;11.534;2022-09-17T03:33:56;16.80;68.20
33207;DHT22;19565;46.602;11.534;2022-09-17T03:36:24;16.80;68.00
33207;DHT22;19565;46.602;11.534;2022-09-17T03:38:54;16.50;69.50
33207;DHT22;19565;46.602;11.534;2022-09-17T03:41:23;16.60;71.70
33207;DHT22;19565;46.602;11.534;2022-09-17T03:43:51;16.70;70.50
33207;DHT22;19565;46.602;11.534;2022-09-17T03:46:19;16.70;71.20
33207;DHT22;19565;46.602;11.534;2022-09-17T03:48:48;16.70;71.30
33207;DHT22;19565;46.602;11.534;2022-09-17T03:51:16;16.70;71.50
33207;DHT22;19565;46.602;11.534;2022-09-17T03:53:44;16.80;70.50
33207;DHT22;19565;46.602;11.534;2022-09-17T03:56:13;16.70;70.90
33207;DHT22;19565;46.602;11.534;2022-09-17T03:58:41;16.70;70.10
33207;DHT22;19565;46.602;11.534;2022-09-17T04:01:10;16.80;70.10
33207;DHT22;19565;46.602;11.534;2022-09-17T04:03:38;17.00;71.00
33207;DHT22;19565;46.602;11.534;2022-09-17T04:06:06;17.00;72.30
33207;DHT22;19565;46.602;11.534;2022-09-17T04:08:34;17.00;71.70
33207;DHT22;19565;46.602;11.534;2022-09-17T04:11:02;16.70;70.90
33207;DHT22;19565;46.602;11.534;2022-09-17T04:13:32;16.80;72.00
33207;DHT22;19565;46.602;11.534;2022-09-17T04:16:01;16.90;72.20
33207;DHT22;19565;46.602;11.534;2022-09-17T04:18:29;17.00;73.80
33207;DHT22;19565;46.602;11.534;2022-09-17T04:20:57;17.10;75.80
33207;DHT22;19565;46.602;11.534;2022-09-17T04:23:25;17.10;75.80
33207;DHT22;19565;46.602;11.534;2022-09-17T04:25:53;17.10;74.20
33207;DHT22;19565;46.602;11.534;2022-09-17T04:28:21;17.00;73.50
33207;DHT22;19565;46.602;11.534;2022-09-17T04:30:51;17.00;73.30
33207;DHT22;19565;46.602;11.534;2022-09-17T04:33:19;17.00;76.00
33207;DHT22;19565;46.602;11.534;2022-09-17T04:35:47;17.00;76.60
33207;DHT22;19565;46.602;11.534;2022-09-17T04:38:15;16.90;75.70
33207;DHT22;19565;46.602;11.534;2022-09-17T04:40:46;16.90;76.30
33207;DHT22;19565;46.602;11.534;2022-09-17T04:43:14;16.80;75.80
33207;DHT22;19565;46.602;11.534;2022-09-17T04:45:44;16.70;75.80
33207;DHT22;19565;46.602;11.534;2022-09-17T04:48:14;16.70;77.80
33207;DHT22;19565;46.602;11.534;2022-09-17T04:50:42;16.80;78.70
33207;DHT22;19565;46.602;11.534;2022-09-17T04:53:10;16.80;82.30
33207;DHT22;19565;46.602;11.534;2022-09-17T04:55:39;16.70;82.10
33207;DHT22;19565;46.602;11.534;2022-09-17T04:58:07;16.50;82.30
33207;DHT22;19565;46.602;11.534;2022-09-17T05:00:35;16.60;83.40
33207;DHT22;19565;46.602;11.534;2022-09-17T05:03:04;16.70;85.90
33207;DHT22;19565;46.602;11.534;2022-09-17T05:05:33;16.60;85.00
33207;DHT22;19565;46.602;11.534;2022-09-17T05:08:01;16.40;85.80
33207;DHT22;19565;46.602;11.534;2022-09-17T05:10:29;16.50;87.70
33207;DHT22;19565;46.602;11.534;2022-09-17T05:12:58;16.50;88.50
33207;DHT22;19565;46.602;11.534;2022-09-17T05:15:26;16.30;88.90
33207;DHT22;19565;46.602;11.534;2022-09-17T05:17:54;16.30;88.90
33207;DHT22;19565;46.602;11.534;2022-09-17T05:20:22;16.40;89.50
33207;DHT22;19565;46.602;11.534;2022-09-17T05:22:52;16.40;90.10
33207;DHT22;19565;46.602;11.534;2022-09-17T05:25:21;16.40;90.90
33207;DHT22;19565;46.602;11.534;2022-09-17T05:27:51;16.50;92.00
33207;DHT22;19565;46.602;11.534;2022-09-17T05:30:19;16.50;92.10
33207;DHT22;19565;46.602;11.534;2022-09-17T05:32:47;16.50;91.70
33207;DHT22;19565;46.602;11.534;2022-09-17T05:35:16;16.20;91.20
33207;DHT22;19565;46.602;11.534;2022-09-17T05:37:44;16.20;91.80
33207;DHT22;19565;46.602;11.534;2022-09-17T05:40:13;15.90;91.80
33207;DHT22;19565;46.602;11.534;2022-09-17T05:42:42;15.60;92.50
33207;DHT22;19565;46.602;11.534;2022-09-17T05:45:10;15.60;93.10
33207;DHT22;19565;46.602;11.534;2022-09-17T05:47:38;15.60;92.50
33207;DHT22;19565;46.602;11.534;2022-09-17T05:50:07;15.40;92.90
33207;DHT22;19565;46.602;11.534;2022-09-17T05:52:35;15.50;93.00
33207;DHT22;19565;46.602;11.534;2022-09-17T05:55:03;15.70;92.90
33207;DHT22;19565;46.602;11.534;2022-09-17T05:57:33;15.80;93.20
33207;DHT22;19565;46.602;11.534;2022-09-17T06:00:02;15.90;93.20
33207;DHT22;19565;46.602;11.534;2022-09-17T06:02:30;16.00;93.20
33207;DHT22;19565;46.602;11.534;2022-09-17T06:04:58;16.00;92.70
33207;DHT22;19565;46.602;11.534;2022-09-17T06:07:27;16.10;92.70
33207;DHT22;19565;46.602;11.534;2022-09-17T06:09:55;16.10;92.60
33207;DHT22;19565;46.602;11.534;2022-09-17T06:12:23;16.20;92.60
33207;DHT22;19565;46.602;11.534;2022-09-17T06:14:53;16.20;92.70
33207;DHT22;19565;46.602;11.534;2022-09-17T06:17:23;16.10;92.80
33207;DHT22;19565;46.602;11.534;2022-09-17T06:19:51;16.10;92.80
33207;DHT22;19565;46.602;11.534;2022-09-17T06:22:19;16.00;91.80
33207;DHT22;19565;46.602;11.534;2022-09-17T06:24:48;15.90;91.50
33207;DHT22;19565;46.602;11.534;2022-09-17T06:27:16;15.90;91.30
33207;DHT22;19565;46.602;11.534;2022-09-17T06:29:44;16.00;91.90
33207;DHT22;19565;46.602;11.534;2022-09-17T06:32:13;16.00;91.60
33207;DHT22;19565;46.602;11.534;2022-09-17T06:34:42;16.00;91.90
33207;DHT22;19565;46.602;11.534;2022-09-17T06:37:10;15.80;91.50
33207;DHT22;19565;46.602;11.534;2022-09-17T06:39:38;15.90;92.10
33207;DHT22;19565;46.602;11.534;2022-09-17T06:42:06;15.90;93.10
33207;DHT22;19565;46.602;11.534;2022-09-17T06:44:34;15.80;92.70
33207;DHT22;19565;46.602;11.534;2022-09-17T06:47:03;15.90;92.80
33207;DHT22;19565;46.602;11.534;2022-09-17T06:49:32;16.00;92.70
33207;DHT22;19565;46.602;11.534;2022-09-17T06:52:01;15.80;92.20
33207;DHT22;19565;46.602;11.534;2022-09-17T06:54:29;15.80;92.50
33207;DHT22;19565;46.602;11.534;2022-09-17T06:56:57;15.80;92.40
33207;DHT22;19565;46.602;11.534;2022-09-17T06:59:25;15.60;91.80
33207;DHT22;19565;46.602;11.534;2022-09-17T07:01:54;15.70;92.20
33207;DHT22;19565;46.602;11.534;2022-09-17T07:04:22;15.60;91.80
33207;DHT22;19565;46.602;11.534;2022-09-17T07:06:51;15.70;91.80
33207;DHT22;19565;46.602;11.534;2022-09-17T07:09:19;15.90;92.00
33207;DHT22;19565;46.602;11.534;2022-09-17T07:11:47;15.90;92.10
33207;DHT22;19565;46.602;11.534;2022-09-17T07:14:15;15.70;92.00
33207;DHT22;19565;46.602;11.534;2022-09-17T07:16:44;15.30;91.80
33207;DHT22;19565;46.602;11.534;2022-09-17T07:19:12;15.20;92.30
33207;DHT22;19565;46.602;11.534;2022-09-17T07:21:40;15.20;92.50
33207;DHT22;19565;46.602;11.534;2022-09-17T07:24:10;15.40;92.30
33207;DHT22;19565;46.602;11.534;2022-09-17T07:26:38;15.60;91.90
33207;DHT22;19565;46.602;11.534;2022-09-17T07:29:06;15.70;90.90
33207;DHT22;19565;46.602;11.534;2022-09-17T07:31:34;15.60;90.70
33207;DHT22;19565;46.602;11.534;2022-09-17T07:34:02;15.50;89.10
33207;DHT22;19565;46.602;11.534;2022-09-17T07:36:30;15.30;90.50
33207;DHT22;19565;46.602;11.534;2022-09-17T07:38:59;14.90;91.00
33207;DHT22;19565;46.602;11.534;2022-09-17T07:41:28;14.90;91.20
33207;DHT22;19565;46.602;11.534;2022-09-17T07:43:56;15.00;91.30
33207;DHT22;19565;46.602;11.534;2022-09-17T07:46:24;14.90;91.40
33207;DHT22;19565;46.602;11.534;2022-09-17T07:48:53;14.90;91.00
33207;DHT22;19565;46.602;11.534;2022-09-17T07:51:22;14.80;91.60
33207;DHT22;19565;46.602;11.534;2022-09-17T07:53:51;14.70;92.00
33207;DHT22;19565;46.602;11.534;2022-09-17T07:56:19;14.60;91.60
33207;DHT22;19565;46.602;11.534;2022-09-17T07:58:49;14.50;91.70
33207;DHT22;19565;46.602;11.534;2022-09-17T08:01:17;14.50;91.90
33207;DHT22;19565;46.602;11.534;2022-09-17T08:03:48;14.30;92.00
33207;DHT22;19565;46.602;11.534;2022-09-17T08:06:18;14.40;92.20
33207;DHT22;19565;46.602;11.534;2022-09-17T08:08:46;14.20;92.80
33207;DHT22;19565;46.602;11.534;2022-09-17T08:11:16;14.10;93.70
33207;DHT22;19565;46.602;11.534;2022-09-17T08:14:05;14.00;94.00
33207;DHT22;19565;46.602;11.534;2022-09-17T08:16:33;14.10;94.40
33207;DHT22;19565;46.602;11.534;2022-09-17T08:19:01;14.10;94.40
33207;DHT22;19565;46.602;11.534;2022-09-17T08:21:29;14.10;93.60
33207;DHT22;19565;46.602;11.534;2022-09-17T08:23:57;14.30;93.40
33207;DHT22;19565;46.602;11.534;2022-09-17T08:26:25;14.50;92.70
33207;DHT22;19565;46.602;11.534;2022-09-17T08:28:54;14.90;92.50
33207;DHT22;19565;46.602;11.534;2022-09-17T08:31:25;15.10;91.70
33207;DHT22;19565;46.602;11.534;2022-09-17T08:33:54;15.00;91.00
33207;DHT22;19565;46.602;11.534;2022-09-17T08:36:22;14.70;90.70
33207;DHT22;19565;46.602;11.534;2022-09-17T08:38:52;14.70;90.80
33207;DHT22;19565;46.602;11.534;2022-09-17T08:41:29;15.00;90.70
33207;DHT22;19565;46.602;11.534;2022-09-17T08:44:13;15.20;90.20
33207;DHT22;19565;46.602;11.534;2022-09-17T08:46:46;15.50;90.10
33207;DHT22;19565;46.602;11.534;2022-09-17T08:49:22;15.70;89.40
33207;DHT22;19565;46.602;11.534;2022-09-17T08:54:48;15.60;87.00
33207;DHT22;19565;46.602;11.534;2022-09-17T08:57:22;15.70;87.10
33207;DHT22;19565;46.602;11.534;2022-09-17T08:59:59;15.80;86.70
33207;DHT22;19565;46.602;11.534;2022-09-17T09:02:42;15.80;86.00
33207;DHT22;19565;46.602;11.534;2022-09-17T09:05:14;15.80;86.60
33207;DHT22;19565;46.602;11.534;2022-09-17T09:07:46;16.10;86.90
33207;DHT22;19565;46.602;11.534;2022-09-17T09:10:18;16.30;86.10
33207;DHT22;19565;46.602;11.534;2022-09-17T09:12:49;16.30;85.70
33207;DHT22;19565;46.602;11.534;2022-09-17T09:15:24;16.40;85.60
33207;DHT22;19565;46.602;11.534;2022-09-17T09:17:57;16.50;82.50
33207;DHT22;19565;46.602;11.534;2022-09-17T09:20:34;16.60;82.80
33207;DHT22;19565;46.602;11.534;2022-09-17T09:23:12;16.40;80.90
33207;DHT22;19565;46.602;11.534;2022-09-17T09:25:53;16.30;79.80
33207;DHT22;19565;46.602;11.534;2022-09-17T09:28:46;16.30;78.60
33207;DHT22;19565;46.602;11.534;2022-09-17T09:31:29;16.20;78.70
33207;DHT22;19565;46.602;11.534;2022-09-17T09:34:03;16.10;79.90
33207;DHT22;19565;46.602;11.534;2022-09-17T09:36:32;16.00;79.60
33207;DHT22;19565;46.602;11.534;2022-09-17T09:39:03;16.00;79.10
33207;DHT22;19565;46.602;11.534;2022-09-17T09:41:38;16.10;79.80
33207;DHT22;19565;46.602;11.534;2022-09-17T09:44:11;16.10;78.80
33207;DHT22;19565;46.602;11.534;2022-09-17T09:47:10;16.20;77.60
33207;DHT22;19565;46.602;11.534;2022-09-17T09:49:57;16.40;77.30
33207;DHT22;19565;46.602;11.534;2022-09-17T09:52:41;16.50;77.80
33207;DHT22;19565;46.602;11.534;2022-09-17T09:55:22;16.50;74.80
33207;DHT22;19565;46.602;11.534;2022-09-17T09:57:57;16.40;71.60
33207;DHT22;19565;46.602;11.534;2022-09-17T10:00:33;16.40;68.80
33207;DHT22;19565;46.602;11.534;2022-09-17T10:03:09;16.30;66.90
33207;DHT22;19565;46.602;11.534;2022-09-17T10:05:39;16.40;66.20
33207;DHT22;19565;46.602;11.534;2022-09-17T10:08:11;16.50;60.40
33207;DHT22;19565;46.602;11.534;2022-09-17T10:10:53;16.50;56.30
33207;DHT22;19565;46.602;11.534;2022-09-17T10:13:22;16.60;53.20
33207;DHT22;19565;46.602;11.534;2022-09-17T10:15:50;16.70;53.80
33207;DHT22;19565;46.602;11.534;2022-09-17T10:18:21;16.90;52.00
33207;DHT22;19565;46.602;11.534;2022-09-17T10:20:59;16.90;52.20
33207;DHT22;19565;46.602;11.534;2022-09-17T10:23:29;16.90;48.90
33207;DHT22;19565;46.602;11.534;2022-09-17T10:25:59;17.00;52.10
33207;DHT22;19565;46.602;11.534;2022-09-17T10:28:32;17.20;49.80
33207;DHT22;19565;46.602;11.534;2022-09-17T10:31:02;17.20;49.80
33207;DHT22;19565;46.602;11.534;2022-09-17T10:33:38;17.30;49.00
33207;DHT22;19565;46.602;11.534;2022-09-17T10:36:11;17.30;47.60
33207;DHT22;19565;46.602;11.534;2022-09-17T10:38:41;17.30;47.50
33207;DHT22;19565;46.602;11.534;2022-09-17T10:41:15;17.40;46.80
33207;DHT22;19565;46.602;11.534;2022-09-17T10:43:48;17.40;44.80
33207;DHT22;19565;46.602;11.534;2022-09-17T10:46:18;17.40;45.60
33207;DHT22;19565;46.602;11.534;2022-09-17T10:48:58;17.40;44.10
33207;DHT22;19565;46.602;11.534;2022-09-17T10:51:33;17.50;45.50
33207;DHT22;19565;46.602;11.534;2022-09-17T10:54:14;17.60;45.20
33207;DHT22;19565;46.602;11.534;2022-09-17T10:56:48;17.70;44.80
33207;DHT22;19565;46.602;11.534;2022-09-17T10:59:42;17.60;44.00
33207;DHT22;19565;46.602;11.534;2022-09-17T11:02:36;17.60;43.20
33207;DHT22;19565;46.602;11.534;2022-09-17T11:05:23;17.70;44.00
33207;DHT22;19565;46.602;11.534;2022-09-17T11:07:59;17.80;43.50
33207;DHT22;19565;46.602;11.534;2022-09-17T11:10:35;17.80;43.20
33207;DHT22;19565;46.602;11.534;2022-09-17T11:13:14;17.80;41.90
33207;DHT22;19565;46.602;11.534;2022-09-17T11:15:57;17.90;42.80
33207;DHT22;19565;46.602;11.534;2022-09-17T11:18:45;17.90;41.90
33207;DHT22;19565;46.602;11.534;2022-09-17T11:21:39;18.00;43.50
33207;DHT22;19565;46.602;11.534;2022-09-17T11:24:41;18.00;42.30
33207;DHT22;19565;46.602;11.534;2022-09-17T11:27:34;17.90;41.80
33207;DHT22;19565;46.602;11.534;2022-09-17T11:30:14;17.90;42.80
33207;DHT22;19565;46.602;11.534;2022-09-17T11:35:39;17.90;41.60
33207;DHT22;19565;46.602;11.534;2022-09-17T11:38:11;17.90;41.90
33207;DHT22;19565;46.602;11.534;2022-09-17T11:40:46;17.80;41.70
33207;DHT22;19565;46.602;11.534;2022-09-17T11:43:25;17.70;42.40
33207;DHT22;19565;46.602;11.534;2022-09-17T11:46:00;17.80;42.40
33207;DHT22;19565;46.602;11.534;2022-09-17T11:48:37;17.80;42.80
33207;DHT22;19565;46.602;11.534;2022-09-17T11:51:21;17.70;42.60
33207;DHT22;19565;46.602;11.534;2022-09-17T11:53:52;17.60;41.20
33207;DHT22;19565;46.602;11.534;2022-09-17T11:56:26;17.60;42.40
33207;DHT22;19565;46.602;11.534;2022-09-17T11:59:01;17.60;42.10
33207;DHT22;19565;46.602;11.534;2022-09-17T12:01:33;17.60;42.40
33207;DHT22;19565;46.602;11.534;2022-09-17T12:04:26;17.70;40.70
33207;DHT22;19565;46.602;11.534;2022-09-17T12:07:00;17.70;41.30
33207;DHT22;19565;46.602;11.534;2022-09-17T12:09:32;17.70;41.70
33207;DHT22;19565;46.602;11.534;2022-09-17T12:12:09;17.70;42.00
33207;DHT22;19565;46.602;11.534;2022-09-17T12:15:02;17.80;42.40
33207;DHT22;19565;46.602;11.534;2022-09-17T12:17:36;17.90;41.10
33207;DHT22;19565;46.602;11.534;2022-09-17T12:20:07;17.90;40.80
33207;DHT22;19565;46.602;11.534;2022-09-17T12:22:45;17.70;41.50
33207;DHT22;19565;46.602;11.534;2022-09-17T12:25:15;17.80;42.90
33207;DHT22;19565;46.602;11.534;2022-09-17T12:27:49;17.90;41.60
33207;DHT22;19565;46.602;11.534;2022-09-17T12:30:22;17.90;42.20
33207;DHT22;19565;46.602;11.534;2022-09-17T12:33:14;18.00;42.30
33207;DHT22;19565;46.602;11.534;2022-09-17T12:36:05;18.00;41.00
33207;DHT22;19565;46.602;11.534;2022-09-17T12:38:51;17.90;41.20
33207;DHT22;19565;46.602;11.534;2022-09-17T12:41:36;18.00;41.30
33207;DHT22;19565;46.602;11.534;2022-09-17T12:44:21;17.90;40.90
33207;DHT22;19565;46.602;11.534;2022-09-17T12:47:02;17.90;39.60
33207;DHT22;19565;46.602;11.534;2022-09-17T12:49:49;18.00;40.10
33207;DHT22;19565;46.602;11.534;2022-09-17T12:52:34;18.10;42.10
33207;DHT22;19565;46.602;11.534;2022-09-17T12:55:20;18.10;40.50
33207;DHT22;19565;46.602;11.534;2022-09-17T12:57:57;18.10;40.10
33207;DHT22;19565;46.602;11.534;2022-09-17T13:00:28;18.00;38.90
33207;DHT22;19565;46.602;11.534;2022-09-17T13:03:03;17.80;39.60
33207;DHT22;19565;46.602;11.534;2022-09-17T13:05:58;17.80;40.00
33207;DHT22;19565;46.602;11.534;2022-09-17T13:12:06;18.00;41.20
33207;DHT22;19565;46.602;11.534;2022-09-17T13:14:53;18.10;39.90
33207;DHT22;19565;46.602;11.534;2022-09-17T13:17:31;18.00;40.60
33207;DHT22;19565;46.602;11.534;2022-09-17T13:20:10;18.00;41.00
33207;DHT22;19565;46.602;11.534;2022-09-17T13:22:44;18.10;41.40
33207;DHT22;19565;46.602;11.534;2022-09-17T13:25:14;18.00;40.70
33207;DHT22;19565;46.602;11.534;2022-09-17T13:27:43;18.00;40.50
33207;DHT22;19565;46.602;11.534;2022-09-17T13:30:14;18.00;41.10
33207;DHT22;19565;46.602;11.534;2022-09-17T13:32:51;18.00;40.20
33207;DHT22;19565;46.602;11.534;2022-09-17T13:35:48;18.10;40.80
33207;DHT22;19565;46.602;11.534;2022-09-17T13:38:17;18.20;40.60
33207;DHT22;19565;46.602;11.534;2022-09-17T13:40:50;18.20;39.80
33207;DHT22;19565;46.602;11.534;2022-09-17T13:43:21;18.20;40.50
33207;DHT22;19565;46.602;11.534;2022-09-17T13:46:08;18.40;40.80
33207;DHT22;19565;46.602;11.534;2022-09-17T13:48:51;18.40;40.70
33207;DHT22;19565;46.602;11.534;2022-09-17T13:54:35;18.20;40.00
33207;DHT22;19565;46.602;11.534;2022-09-17T13:57:09;18.20;39.40
33207;DHT22;19565;46.602;11.534;2022-09-17T13:59:39;18.10;39.30
33207;DHT22;19565;46.602;11.534;2022-09-17T14:02:30;18.20;39.40
33207;DHT22;19565;46.602;11.534;2022-09-17T14:05:23;18.10;39.10
33207;DHT22;19565;46.602;11.534;2022-09-17T14:08:12;18.10;39.00
33207;DHT22;19565;46.602;11.534;2022-09-17T14:10:42;18.10;40.30
33207;DHT22;19565;46.602;11.534;2022-09-17T14:16:30;18.10;40.20
33207;DHT22;19565;46.602;11.534;2022-09-17T14:19:16;18.00;40.30
33207;DHT22;19565;46.602;11.534;2022-09-17T14:22:00;18.00;40.70
33207;DHT22;19565;46.602;11.534;2022-09-17T14:24:34;18.00;41.00
33207;DHT22;19565;46.602;11.534;2022-09-17T14:27:16;17.90;41.40
33207;DHT22;19565;46.602;11.534;2022-09-17T14:30:17;18.00;41.30
33207;DHT22;19565;46.602;11.534;2022-09-17T14:32:53;17.90;41.60
33207;DHT22;19565;46.602;11.534;2022-09-17T14:35:29;17.80;41.20
33207;DHT22;19565;46.602;11.534;2022-09-17T14:38:02;17.80;41.90
33207;DHT22;19565;46.602;11.534;2022-09-17T14:40:32;17.90;41.90
33207;DHT22;19565;46.602;11.534;2022-09-17T14:43:02;17.90;42.10
33207;DHT22;19565;46.602;11.534;2022-09-17T14:45:31;18.00;42.70
33207;DHT22;19565;46.602;11.534;2022-09-17T14:48:23;18.00;41.30
33207;DHT22;19565;46.602;11.534;2022-09-17T14:51:00;17.90;41.90
33207;DHT22;19565;46.602;11.534;2022-09-17T14:53:39;17.80;42.00
33207;DHT22;19565;46.602;11.534;2022-09-17T14:56:08;17.90;41.40
33207;DHT22;19565;46.602;11.534;2022-09-17T14:58:41;18.00;41.30
33207;DHT22;19565;46.602;11.534;2022-09-17T15:01:20;17.90;42.00
33207;DHT22;19565;46.602;11.534;2022-09-17T15:03:50;17.80;42.20
33207;DHT22;19565;46.602;11.534;2022-09-17T15:06:34;17.80;42.40
33207;DHT22;19565;46.602;11.534;2022-09-17T15:09:03;17.70;43.10
33207;DHT22;19565;46.602;11.534;2022-09-17T15:11:35;17.70;43.10
33207;DHT22;19565;46.602;11.534;2022-09-17T15:14:11;17.80;43.80
33207;DHT22;19565;46.602;11.534;2022-09-17T15:16:46;17.70;44.20
33207;DHT22;19565;46.602;11.534;2022-09-17T15:19:21;17.70;43.80
33207;DHT22;19565;46.602;11.534;2022-09-17T15:21:51;17.60;43.90
33207;DHT22;19565;46.602;11.534;2022-09-17T15:24:29;17.60;43.80
33207;DHT22;19565;46.602;11.534;2022-09-17T15:27:03;17.50;43.80
33207;DHT22;19565;46.602;11.534;2022-09-17T15:29:34;17.50;43.90
33207;DHT22;19565;46.602;11.534;2022-09-17T15:32:04;17.40;43.70
33207;DHT22;19565;46.602;11.534;2022-09-17T15:34:32;17.40;44.30
33207;DHT22;19565;46.602;11.534;2022-09-17T15:37:04;17.40;44.00
33207;DHT22;19565;46.602;11.534;2022-09-17T15:39:39;17.40;44.40
33207;DHT22;19565;46.602;11.534;2022-09-17T15:42:17;17.40;44.20
33207;DHT22;19565;46.602;11.534;2022-09-17T15:44:46;17.40;44.70
33207;DHT22;19565;46.602;11.534;2022-09-17T15:47:33;17.40;44.10
33207;DHT22;19565;46.602;11.534;2022-09-17T15:50:16;17.40;44.60
33207;DHT22;19565;46.602;11.534;2022-09-17T15:52:45;17.40;44.80
33207;DHT22;19565;46.602;11.534;2022-09-17T15:55:34;17.40;44.00
33207;DHT22;19565;46.602;11.534;2022-09-17T15:58:05;17.40;44.60
33207;DHT22;19565;46.602;11.534;2022-09-17T16:00:46;17.50;44.70
33207;DHT22;19565;46.602;11.534;2022-09-17T16:04:01;17.40;44.40
33207;DHT22;19565;46.602;11.534;2022-09-17T16:06:36;17.40;44.80
33207;DHT22;19565;46.602;11.534;2022-09-17T16:09:35;17.40;44.80
33207;DHT22;19565;46.602;11.534;2022-09-17T16:12:05;17.40;44.60
33207;DHT22;19565;46.602;11.534;2022-09-17T16:14:33;17.30;45.00